Time;durP1;ratioP1;P1;durP2;ratioP2;P2;SDS_P1;SDS_P2;PMS_P1;PMS_P2;Temp;Humidity;BMP_temperature;BMP_pressure;BME280_temperature;BME280_humidity;BME280_pressure;Samples;Min_cycle;Max_cycle;Signal;HPM_P1;HPM_P2
2023/06/21 00:01:43;;;;;;;39.30;35.60;;;21.90;99.90;;;;;;5048494;28;20206;-76
2023/06/21 00:04:09;;;;;;;40.57;36.67;;;22.00;99.90;;;;;;5050622;28;20362;-74
2023/06/21 00:06:37;;;;;;;39.73;36.03;;;22.00;99.90;;;;;;5046474;28;20277;-74
2023/06/21 00:09:03;;;;;;;44.67;40.43;;;22.00;99.90;;;;;;5047323;28;20672;-73
2023/06/21 00:11:30;;;;;;;39.95;36.08;;;22.00;99.90;;;;;;5045730;28;20202;-74
2023/06/21 00:13:55;;;;;;;42.30;38.40;;;22.00;99.90;;;;;;5044285;28;20191;-73
2023/06/21 00:16:21;;;;;;;40.07;36.47;;;22.00;99.90;;;;;;5051696;28;20202;-73
2023/06/21 00:18:47;;;;;;;39.87;36.33;;;21.90;99.90;;;;;;5041148;28;20206;-72
2023/06/21 00:21:13;;;;;;;39.20;35.30;;;21.90;99.90;;;;;;5046916;28;20199;-73
2023/06/21 00:23:40;;;;;;;41.57;37.80;;;21.90;99.90;;;;;;5055822;28;20218;-72
2023/06/21 00:26:05;;;;;;;41.73;37.63;;;21.90;99.90;;;;;;5047678;28;20595;-73
2023/06/21 00:28:30;;;;;;;44.03;37.10;;;21.80;99.90;;;;;;5048043;28;20906;-71
2023/06/21 00:30:56;;;;;;;40.90;37.03;;;21.80;99.90;;;;;;5048546;28;20563;-71
2023/06/21 00:33:21;;;;;;;41.93;37.70;;;21.80;99.90;;;;;;5049293;28;20202;-72
2023/06/21 00:35:47;;;;;;;44.80;40.53;;;21.80;99.90;;;;;;5047909;28;20210;-72
2023/06/21 00:38:12;;;;;;;43.07;38.97;;;21.80;99.90;;;;;;5049089;28;20593;-72
2023/06/21 00:40:39;;;;;;;42.57;38.67;;;21.70;99.90;;;;;;5052834;28;20275;-72
2023/06/21 00:43:05;;;;;;;42.77;38.77;;;21.70;99.90;;;;;;5046301;28;20223;-73
2023/06/21 00:45:39;;;;;;;43.23;39.13;;;21.80;99.90;;;;;;5047732;28;20213;-72
2023/06/21 00:48:04;;;;;;;45.23;41.07;;;21.70;99.90;;;;;;5050175;28;20202;-72
2023/06/21 00:50:30;;;;;;;43.03;38.93;;;21.70;99.90;;;;;;5049777;28;20190;-72
2023/06/21 00:52:56;;;;;;;42.80;38.60;;;21.70;99.90;;;;;;5050098;28;20202;-72
2023/06/21 00:55:23;;;;;;;42.47;38.07;;;21.70;99.90;;;;;;5048104;28;20676;-73
2023/06/21 00:57:49;;;;;;;40.53;36.80;;;21.70;99.90;;;;;;5048112;28;20399;-72
2023/06/21 01:00:20;;;;;;;45.00;40.70;;;21.60;99.90;;;;;;5049313;28;20714;-72
2023/06/21 01:02:46;;;;;;;45.37;41.17;;;21.60;99.90;;;;;;5049522;28;20216;-73
2023/06/21 01:05:16;;;;;;;42.63;38.37;;;21.50;99.90;;;;;;5049184;28;20205;-71
2023/06/21 01:08:01;;;;;;;42.47;38.47;;;21.50;99.90;;;;;;5045368;28;20650;-72
2023/06/21 01:10:50;;;;;;;43.33;39.13;;;21.60;99.90;;;;;;5050675;28;20194;-72
2023/06/21 01:13:27;;;;;;;42.03;38.17;;;21.60;99.90;;;;;;5050433;28;20708;-72
2023/06/21 01:16:03;;;;;;;42.43;38.33;;;21.60;99.90;;;;;;5047487;28;20209;-72
2023/06/21 01:18:29;;;;;;;43.57;39.50;;;21.60;99.90;;;;;;5049281;28;20194;-73
2023/06/21 01:20:57;;;;;;;43.80;39.73;;;21.60;99.90;;;;;;5049814;28;20308;-72
2023/06/21 01:23:26;;;;;;;40.77;37.00;;;21.60;99.90;;;;;;5050674;28;20271;-72
2023/06/21 01:25:54;;;;;;;40.50;36.63;;;21.60;99.90;;;;;;5050582;28;20637;-72
2023/06/21 01:28:58;;;;;;;39.87;36.20;;;21.60;99.90;;;;;;5049405;28;20281;-73
2023/06/21 01:31:25;;;;;;;42.00;38.10;;;21.60;99.90;;;;;;5050674;28;20186;-72
2023/06/21 01:33:52;;;;;;;39.43;35.77;;;21.60;99.90;;;;;;5050312;28;20209;-74
2023/06/21 01:36:18;;;;;;;39.47;35.80;;;21.70;99.90;;;;;;5049600;28;20198;-73
2023/06/21 01:38:44;;;;;;;38.33;35.00;;;21.70;99.90;;;;;;5050461;28;20226;-73
2023/06/21 01:41:12;;;;;;;38.70;35.20;;;21.70;99.90;;;;;;5047100;28;20205;-73
2023/06/21 01:43:38;;;;;;;37.50;34.00;;;21.70;99.90;;;;;;5045505;28;20217;-72
2023/06/21 01:46:06;;;;;;;38.77;35.13;;;21.80;99.90;;;;;;5049827;28;20202;-72
2023/06/21 01:48:34;;;;;;;37.73;34.33;;;21.70;99.90;;;;;;5049135;28;20213;-72
2023/06/21 01:51:02;;;;;;;38.47;34.77;;;21.70;99.90;;;;;;5048533;28;20226;-72
2023/06/21 01:53:30;;;;;;;40.58;36.78;;;21.60;99.90;;;;;;5048161;28;20645;-73
2023/06/21 01:55:58;;;;;;;39.57;35.87;;;21.60;99.90;;;;;;5051361;28;20229;-72
2023/06/21 01:58:24;;;;;;;40.03;36.23;;;21.60;99.90;;;;;;5052868;28;20213;-72
2023/06/21 02:00:50;;;;;;;38.23;34.97;;;21.50;99.90;;;;;;5052886;28;20214;-74
2023/06/21 02:03:18;;;;;;;38.57;35.07;;;21.50;99.90;;;;;;5048516;28;20241;-72
2023/06/21 02:05:45;;;;;;;39.30;35.33;;;21.40;99.90;;;;;;5049757;28;20238;-71
2023/06/21 02:08:17;;;;;;;37.83;34.13;;;21.40;99.90;;;;;;5050440;28;20223;-71
2023/06/21 02:10:45;;;;;;;38.13;34.73;;;21.40;99.90;;;;;;5049925;28;20202;-72
2023/06/21 02:13:12;;;;;;;39.10;35.40;;;21.50;99.90;;;;;;5056682;28;20303;-73
2023/06/21 02:15:38;;;;;;;37.87;34.60;;;21.50;99.90;;;;;;5052154;28;20202;-71
2023/06/21 02:18:03;;;;;;;39.53;35.73;;;21.50;99.90;;;;;;5051788;28;20700;-71
2023/06/21 02:20:29;;;;;;;38.47;34.87;;;21.50;99.90;;;;;;5055050;28;20199;-71
2023/06/21 02:22:55;;;;;;;40.13;36.33;;;21.60;99.90;;;;;;5057250;28;20640;-71
2023/06/21 02:25:21;;;;;;;40.20;36.40;;;21.70;99.90;;;;;;5045863;28;20610;-71
2023/06/21 02:27:47;;;;;;;39.37;35.43;;;21.80;99.90;;;;;;5052217;28;20201;-72
2023/06/21 02:30:13;;;;;;;35.50;32.20;;;22.00;99.90;;;;;;5044545;28;20208;-72
2023/06/21 02:32:38;;;;;;;36.17;32.93;;;22.00;99.90;;;;;;5053276;28;20203;-72
2023/06/21 02:35:05;;;;;;;36.73;33.13;;;22.00;99.90;;;;;;5057907;28;20621;-72
2023/06/21 02:37:30;;;;;;;38.30;34.50;;;22.10;99.90;;;;;;5056067;28;20202;-72
2023/06/21 02:39:56;;;;;;;35.87;32.60;;;22.10;99.90;;;;;;5053048;28;20231;-72
2023/06/21 02:42:22;;;;;;;37.90;34.40;;;22.10;99.90;;;;;;5054842;28;20251;-73
2023/06/21 02:44:48;;;;;;;36.30;32.80;;;22.10;99.90;;;;;;5053896;28;20197;-73
2023/06/21 02:47:13;;;;;;;38.80;35.20;;;22.00;99.90;;;;;;5058242;28;20202;-73
2023/06/21 02:49:39;;;;;;;39.67;35.90;;;22.00;99.90;;;;;;5057884;28;20263;-72
2023/06/21 02:52:04;;;;;;;41.20;37.03;;;21.90;99.90;;;;;;5057980;28;20206;-74
2023/06/21 02:54:30;;;;;;;39.03;35.40;;;21.80;99.90;;;;;;5057989;28;20204;-73
2023/06/21 02:56:56;;;;;;;42.87;38.77;;;21.50;99.90;;;;;;5058030;28;20194;-73
2023/06/21 02:59:21;;;;;;;43.67;39.37;;;21.40;99.90;;;;;;5058933;28;20191;-73
2023/06/21 03:01:47;;;;;;;45.73;41.30;;;21.30;99.90;;;;;;5057337;28;20197;-74
2023/06/21 03:04:16;;;;;;;43.43;39.17;;;21.20;99.90;;;;;;5056283;28;20298;-73
2023/06/21 03:06:41;;;;;;;44.27;39.87;;;21.10;99.90;;;;;;5048238;28;20190;-72
2023/06/21 03:09:07;;;;;;;45.17;40.80;;;21.10;99.90;;;;;;5057520;28;20687;-71
2023/06/21 03:11:33;;;;;;;47.40;42.57;;;21.00;99.90;;;;;;5057196;28;20204;-73
2023/06/21 03:13:58;;;;;;;45.63;41.20;;;21.00;99.90;;;;;;5057234;28;20261;-72
2023/06/21 03:16:24;;;;;;;47.00;42.47;;;20.90;99.90;;;;;;5054461;28;20215;-71
2023/06/21 03:18:49;;;;;;;43.90;39.53;;;20.90;99.90;;;;;;5054249;28;20995;-72
2023/06/21 03:21:15;;;;;;;45.97;41.47;;;20.90;99.90;;;;;;5044751;28;20767;-73
2023/06/21 03:23:40;;;;;;;47.40;42.97;;;21.00;99.90;;;;;;5044322;28;20212;-71
2023/06/21 03:26:06;;;;;;;45.70;41.37;;;20.80;99.90;;;;;;5051154;28;20606;-72
2023/06/21 03:28:31;;;;;;;46.87;42.30;;;20.80;99.90;;;;;;5056096;28;20566;-72
2023/06/21 03:30:57;;;;;;;46.10;41.57;;;20.70;99.90;;;;;;5054889;28;20189;-72
2023/06/21 03:33:23;;;;;;;46.33;41.87;;;20.80;99.90;;;;;;5056376;28;20291;-71
2023/06/21 03:35:49;;;;;;;49.10;44.50;;;20.80;99.90;;;;;;5055580;28;20237;-72
2023/06/21 03:38:14;;;;;;;50.47;45.40;;;20.80;99.90;;;;;;5056865;28;20803;-71
2023/06/21 03:40:40;;;;;;;47.83;43.30;;;20.90;99.90;;;;;;5057064;28;20230;-71
2023/06/21 03:43:05;;;;;;;47.40;42.70;;;21.00;99.90;;;;;;5055128;28;20264;-73
2023/06/21 03:45:31;;;;;;;48.17;43.67;;;21.00;99.90;;;;;;5052221;28;20197;-72
2023/06/21 03:47:56;;;;;;;47.10;42.70;;;21.00;99.90;;;;;;5056892;28;20274;-72
2023/06/21 03:50:23;;;;;;;49.93;45.23;;;21.00;99.90;;;;;;5057023;28;20664;-72
2023/06/21 03:52:48;;;;;;;49.63;45.03;;;20.90;99.90;;;;;;5056867;28;20247;-71
2023/06/21 03:55:14;;;;;;;47.47;42.97;;;21.00;99.90;;;;;;5056625;28;20280;-72
2023/06/21 03:57:39;;;;;;;47.83;43.03;;;21.00;99.90;;;;;;5054938;28;20194;-70
2023/06/21 04:00:06;;;;;;;48.47;43.63;;;21.00;99.90;;;;;;5056844;28;20668;-72
2023/06/21 04:02:32;;;;;;;46.87;42.47;;;21.00;99.90;;;;;;5056499;28;20711;-71
2023/06/21 04:04:58;;;;;;;48.90;44.13;;;21.00;99.90;;;;;;5059885;28;20219;-72
2023/06/21 04:07:24;;;;;;;49.77;45.07;;;21.00;99.90;;;;;;5060806;28;20195;-75
2023/06/21 04:09:50;;;;;;;52.47;47.40;;;21.00;99.90;;;;;;5058998;28;20201;-72
2023/06/21 04:12:15;;;;;;;50.87;46.00;;;20.90;99.90;;;;;;5063747;28;20203;-72
2023/06/21 04:14:41;;;;;;;51.60;47.00;;;20.90;99.90;;;;;;5054846;28;20213;-71
2023/06/21 04:17:06;;;;;;;52.87;47.80;;;20.90;99.90;;;;;;5060354;28;20213;-71
2023/06/21 04:19:32;;;;;;;53.30;48.20;;;20.90;99.90;;;;;;5061741;28;20217;-71
2023/06/21 04:21:57;;;;;;;51.47;46.60;;;20.90;99.90;;;;;;5058850;28;20562;-70
2023/06/21 04:24:23;;;;;;;47.27;42.67;;;21.00;99.90;;;;;;5058250;28;20194;-70
2023/06/21 04:26:48;;;;;;;54.47;49.07;;;21.00;99.90;;;;;;5060402;28;20190;-70
2023/06/21 04:29:17;;;;;;;53.53;48.33;;;21.00;99.90;;;;;;5055579;28;20276;-71
2023/06/21 04:31:43;;;;;;;55.93;50.57;;;21.00;99.90;;;;;;5060340;28;20211;-70
2023/06/21 04:34:09;;;;;;;53.00;48.00;;;20.90;99.90;;;;;;5058558;28;20228;-70
2023/06/21 04:36:35;;;;;;;55.37;49.63;;;20.90;99.90;;;;;;5059744;28;20202;-69
2023/06/21 04:39:01;;;;;;;55.57;50.00;;;20.90;99.90;;;;;;5059744;28;20221;-70
2023/06/21 04:41:26;;;;;;;58.20;52.50;;;20.80;99.90;;;;;;5060184;28;20208;-70
2023/06/21 04:43:51;;;;;;;57.13;51.73;;;20.90;99.90;;;;;;5059313;28;20221;-70
2023/06/21 04:46:18;;;;;;;55.43;49.93;;;20.90;99.90;;;;;;5059862;28;20930;-70
2023/06/21 04:48:46;;;;;;;56.73;51.03;;;20.90;99.90;;;;;;5058329;28;20668;-70
2023/06/21 04:51:15;;;;;;;59.47;53.67;;;20.90;99.90;;;;;;5058691;28;20275;-69
2023/06/21 04:53:45;;;;;;;54.17;48.90;;;21.00;99.90;;;;;;5059513;28;20221;-70
2023/06/21 04:56:12;;;;;;;59.50;53.90;;;21.00;99.90;;;;;;5057929;28;20235;-70
2023/06/21 04:58:39;;;;;;;60.10;54.07;;;21.00;99.90;;;;;;5057188;28;20210;-70
2023/06/21 05:01:10;;;;;;;52.27;47.27;;;21.10;99.90;;;;;;5059155;28;20695;-70
2023/06/21 05:03:35;;;;;;;62.47;56.27;;;21.00;99.90;;;;;;5059019;28;20825;-70
2023/06/21 05:06:01;;;;;;;51.53;46.40;;;21.00;99.90;;;;;;5059353;28;20258;-70
2023/06/21 05:08:27;;;;;;;59.13;53.33;;;21.10;99.90;;;;;;5050156;28;20212;-70
2023/06/21 05:10:53;;;;;;;56.33;50.50;;;21.10;99.90;;;;;;5048124;28;20560;-70
2023/06/21 05:13:19;;;;;;;53.03;47.73;;;21.10;99.90;;;;;;5048038;28;20220;-70
2023/06/21 05:15:45;;;;;;;50.90;46.03;;;21.00;99.90;;;;;;5047540;28;20214;-70
2023/06/21 05:18:10;;;;;;;49.33;44.60;;;21.10;99.90;;;;;;5052098;28;20306;-70
2023/06/21 05:20:36;;;;;;;52.20;47.20;;;21.00;99.90;;;;;;5044571;28;20236;-70
2023/06/21 05:23:01;;;;;;;50.83;46.03;;;21.00;99.90;;;;;;5047020;28;20264;-70
2023/06/21 05:25:27;;;;;;;51.97;46.97;;;21.00;99.90;;;;;;5052802;28;20202;-70
2023/06/21 05:27:52;;;;;;;50.77;45.90;;;21.00;99.90;;;;;;5045614;28;20664;-70
2023/06/21 05:30:18;;;;;;;52.67;47.73;;;21.00;99.90;;;;;;5049056;28;20839;-70
2023/06/21 05:32:44;;;;;;;48.37;43.80;;;21.10;99.90;;;;;;5053630;28;20281;-70
2023/06/21 05:35:10;;;;;;;49.27;44.57;;;21.10;99.90;;;;;;5058395;28;20225;-69
2023/06/21 05:37:36;;;;;;;49.70;45.07;;;21.10;99.90;;;;;;5054944;28;20202;-70
2023/06/21 05:40:02;;;;;;;47.10;42.80;;;21.10;99.90;;;;;;5057487;28;20218;-71
2023/06/21 05:42:29;;;;;;;49.23;44.33;;;21.10;99.90;;;;;;5056677;28;20218;-70
2023/06/21 05:44:54;;;;;;;50.77;45.53;;;21.20;99.90;;;;;;5058610;28;20570;-70
2023/06/21 05:47:20;;;;;;;49.93;45.23;;;21.20;99.90;;;;;;5058105;28;20247;-70
2023/06/21 05:49:45;;;;;;;47.37;42.87;;;21.20;99.90;;;;;;5056373;28;20197;-69
2023/06/21 05:52:12;;;;;;;45.60;41.13;;;21.30;99.90;;;;;;5056050;28;20235;-72
2023/06/21 05:54:41;;;;;;;46.23;41.93;;;21.30;99.90;;;;;;5059607;28;20197;-69
2023/06/21 05:57:07;;;;;;;48.33;43.73;;;21.30;99.90;;;;;;5055693;28;20223;-69
2023/06/21 05:59:33;;;;;;;47.77;43.40;;;21.20;99.90;;;;;;5054230;28;20211;-68
2023/06/21 06:01:58;;;;;;;49.00;44.27;;;21.20;99.90;;;;;;5056128;28;20193;-69
2023/06/21 06:04:24;;;;;;;48.77;44.17;;;21.20;99.90;;;;;;5058062;28;20225;-68
2023/06/21 06:06:49;;;;;;;48.23;43.57;;;21.20;99.90;;;;;;5057685;28;20199;-69
2023/06/21 06:09:14;;;;;;;49.37;44.57;;;21.30;99.90;;;;;;5057529;28;20613;-68
2023/06/21 06:11:40;;;;;;;48.93;44.17;;;21.30;99.90;;;;;;5057713;28;20311;-69
2023/06/21 06:14:05;;;;;;;48.93;44.53;;;21.30;99.90;;;;;;5057527;28;20266;-70
2023/06/21 06:16:31;;;;;;;47.77;43.23;;;21.30;99.90;;;;;;5055644;28;20190;-69
2023/06/21 06:18:57;;;;;;;50.77;45.57;;;21.30;99.90;;;;;;5057651;28;20202;-68
2023/06/21 06:21:22;;;;;;;49.97;45.23;;;21.50;99.90;;;;;;5056238;28;20589;-69
2023/06/21 06:23:54;;;;;;;47.60;43.17;;;21.60;99.90;;;;;;5058315;28;20308;-67
2023/06/21 06:26:24;;;;;;;46.07;41.57;;;21.60;99.90;;;;;;5055066;28;20188;-68
2023/06/21 06:28:54;;;;;;;50.07;45.17;;;21.60;99.90;;;;;;5056767;28;20201;-68
2023/06/21 06:31:23;;;;;;;48.43;43.77;;;21.60;99.90;;;;;;5057588;28;20190;-69
2023/06/21 06:33:49;;;;;;;49.83;45.20;;;21.50;99.90;;;;;;5057477;28;20206;-68
2023/06/21 06:36:14;;;;;;;47.67;42.70;;;21.50;99.90;;;;;;5055681;28;20231;-68
2023/06/21 06:38:40;;;;;;;45.93;41.43;;;21.50;99.90;;;;;;5057065;28;20233;-69
2023/06/21 06:41:05;;;;;;;44.63;40.43;;;21.50;99.90;;;;;;5057243;28;20531;-68
2023/06/21 06:43:32;;;;;;;46.77;42.27;;;21.70;99.90;;;;;;5056944;28;20226;-68
2023/06/21 06:45:58;;;;;;;50.40;45.67;;;21.70;99.90;;;;;;5056089;28;20220;-69
2023/06/21 06:48:26;;;;;;;49.17;44.50;;;21.80;99.90;;;;;;5059647;28;20680;-69
2023/06/21 06:50:51;;;;;;;46.90;42.40;;;21.90;99.90;;;;;;5046477;28;20217;-69
2023/06/21 06:53:17;;;;;;;38.23;34.60;;;22.00;99.90;;;;;;5045908;28;20692;-70
2023/06/21 06:55:42;;;;;;;39.47;35.97;;;21.90;99.90;;;;;;5046404;28;20195;-69
2023/06/21 06:58:08;;;;;;;36.73;33.37;;;22.00;99.90;;;;;;5046881;28;20686;-69
2023/06/21 07:00:33;;;;;;;35.60;32.07;;;22.00;99.90;;;;;;5046038;28;20289;-70
2023/06/21 07:02:59;;;;;;;34.03;30.90;;;22.00;99.90;;;;;;5047654;28;20231;-70
2023/06/21 07:05:24;;;;;;;33.67;30.47;;;22.20;99.90;;;;;;5055722;28;20563;-70
2023/06/21 07:07:50;;;;;;;37.03;33.57;;;22.20;99.90;;;;;;5047557;28;20259;-70
2023/06/21 07:10:16;;;;;;;33.07;30.03;;;22.30;99.90;;;;;;5047631;28;20228;-70
2023/06/21 07:12:42;;;;;;;29.87;27.20;;;22.30;99.90;;;;;;5041216;28;20703;-70
2023/06/21 07:15:08;;;;;;;31.33;28.45;;;22.30;99.90;;;;;;5047320;28;20210;-71
2023/06/21 07:17:33;;;;;;;24.33;22.23;;;22.40;99.90;;;;;;5046289;28;20218;-71
2023/06/21 07:19:59;;;;;;;28.27;25.47;;;22.50;99.90;;;;;;5051394;28;20214;-70
2023/06/21 07:22:25;;;;;;;27.80;24.90;;;22.50;99.90;;;;;;5041008;28;20219;-71
2023/06/21 07:24:50;;;;;;;27.93;25.10;;;22.50;99.90;;;;;;5047205;28;20277;-70
2023/06/21 07:27:16;;;;;;;29.37;26.47;;;22.50;99.90;;;;;;5046427;28;20201;-70
2023/06/21 07:29:41;;;;;;;26.20;23.90;;;22.60;99.90;;;;;;5044504;28;20229;-71
2023/06/21 07:32:07;;;;;;;26.67;24.07;;;22.70;99.90;;;;;;5047277;28;20610;-70
2023/06/21 07:34:32;;;;;;;25.27;22.53;;;22.80;99.90;;;;;;5046908;28;20198;-72
2023/06/21 07:36:58;;;;;;;24.73;22.47;;;22.90;99.90;;;;;;5042376;28;20534;-71
2023/06/21 07:39:23;;;;;;;21.87;19.87;;;23.00;99.90;;;;;;5047645;28;20218;-72
2023/06/21 07:41:49;;;;;;;21.92;19.98;;;23.00;99.90;;;;;;5053526;28;20194;-71
2023/06/21 07:44:14;;;;;;;21.10;19.17;;;23.00;99.90;;;;;;5052603;28;20233;-72
2023/06/21 07:46:40;;;;;;;21.53;19.53;;;23.00;99.90;;;;;;5056999;28;20406;-70
2023/06/21 07:49:05;;;;;;;21.87;19.80;;;23.00;99.90;;;;;;5051841;28;20205;-71
2023/06/21 07:51:31;;;;;;;21.27;19.37;;;23.00;99.90;;;;;;5061856;28;20212;-70
2023/06/21 07:53:56;;;;;;;20.43;18.60;;;23.20;99.90;;;;;;5054436;28;20207;-72
2023/06/21 07:56:22;;;;;;;20.47;18.57;;;23.10;99.90;;;;;;5053013;28;20285;-71
2023/06/21 07:58:48;;;;;;;19.37;17.47;;;23.20;99.90;;;;;;5061845;28;20209;-71
2023/06/21 08:01:13;;;;;;;19.73;17.83;;;23.20;99.90;;;;;;5062296;28;20214;-72
2023/06/21 08:03:42;;;;;;;18.50;16.90;;;23.20;99.90;;;;;;5063048;28;20266;-71
2023/06/21 08:06:07;;;;;;;18.50;17.00;;;23.30;99.90;;;;;;5058331;28;20226;-71
2023/06/21 08:08:33;;;;;;;18.27;16.55;;;23.50;99.90;;;;;;5068714;28;20431;-71
2023/06/21 08:10:58;;;;;;;17.95;16.15;;;23.50;99.90;;;;;;5075004;28;20210;-72
2023/06/21 08:13:26;;;;;;;16.90;15.30;;;23.80;99.90;;;;;;5075735;28;20205;-71
2023/06/21 08:15:51;;;;;;;16.87;15.30;;;23.70;99.90;;;;;;5068977;28;20193;-70
2023/06/21 08:18:17;;;;;;;17.23;15.63;;;23.70;99.90;;;;;;5066891;28;20228;-71
2023/06/21 08:20:43;;;;;;;18.17;16.63;;;23.80;99.90;;;;;;5075998;28;20205;-71
2023/06/21 08:23:09;;;;;;;17.97;16.27;;;24.00;99.90;;;;;;5071167;28;20214;-72
2023/06/21 08:25:35;;;;;;;17.38;15.63;;;24.20;99.90;;;;;;5074254;28;20288;-71
2023/06/21 08:28:01;;;;;;;18.98;17.20;;;24.10;99.90;;;;;;5076726;28;20217;-71
2023/06/21 08:30:27;;;;;;;18.93;17.17;;;24.10;99.90;;;;;;5075583;28;20198;-71
2023/06/21 08:32:53;;;;;;;16.73;15.30;;;24.10;99.90;;;;;;5069967;28;20193;-71
2023/06/21 08:35:18;;;;;;;16.13;14.57;;;24.30;99.90;;;;;;5060229;28;20202;-71
2023/06/21 08:37:55;;;;;;;17.75;15.95;;;24.40;99.90;;;;;;5060058;28;20206;-73
2023/06/21 08:40:25;;;;;;;16.90;15.30;;;24.40;99.90;;;;;;5058726;28;20221;-71
2023/06/21 08:42:52;;;;;;;16.83;15.23;;;24.40;99.90;;;;;;5064118;28;20376;-72
2023/06/21 08:45:17;;;;;;;14.63;13.23;;;24.60;99.90;;;;;;5065232;28;20201;-71
2023/06/21 08:47:45;;;;;;;15.25;13.95;;;24.80;99.90;;;;;;5064519;28;20195;-72
2023/06/21 08:50:13;;;;;;;14.70;13.10;;;24.90;99.90;;;;;;5049117;28;20241;-71
2023/06/21 08:52:41;;;;;;;17.23;13.90;;;24.70;99.90;;;;;;5053850;28;20237;-72
2023/06/21 08:55:09;;;;;;;13.87;12.67;;;24.60;99.90;;;;;;5049593;28;20570;-72
2023/06/21 08:57:44;;;;;;;15.13;13.70;;;24.50;99.90;;;;;;5048671;28;20281;-72
2023/06/21 09:00:12;;;;;;;14.67;13.37;;;24.50;99.90;;;;;;5047371;28;20255;-70
2023/06/21 09:02:58;;;;;;;12.80;11.60;;;24.70;99.90;;;;;;5048917;28;20250;-71
2023/06/21 09:05:36;;;;;;;12.95;11.77;;;24.90;99.90;;;;;;5048047;28;20248;-73
2023/06/21 09:08:02;;;;;;;12.80;11.50;;;24.80;99.90;;;;;;5047407;28;20264;-76
2023/06/21 09:10:28;;;;;;;11.93;10.77;;;24.70;99.90;;;;;;5048024;28;20292;-76
2023/06/21 09:12:56;;;;;;;12.13;10.88;;;24.70;99.90;;;;;;5050477;28;21007;-76
2023/06/21 09:15:23;;;;;;;11.43;10.47;;;24.70;99.90;;;;;;5046383;28;20202;-75
2023/06/21 09:17:50;;;;;;;12.68;11.45;;;24.80;99.90;;;;;;5048015;28;20199;-76
2023/06/21 09:20:16;;;;;;;11.85;10.80;;;24.70;99.90;;;;;;5049856;28;20209;-75
2023/06/21 09:22:43;;;;;;;12.90;11.73;;;24.70;99.90;;;;;;5059390;28;20214;-75
2023/06/21 09:25:09;;;;;;;11.95;10.85;;;24.90;99.90;;;;;;5047922;28;20742;-75
2023/06/21 09:27:34;;;;;;;13.02;11.98;;;25.10;99.90;;;;;;5056670;28;20522;-75
2023/06/21 09:30:00;;;;;;;12.07;10.87;;;25.20;99.90;;;;;;5048099;28;20198;-74
2023/06/21 09:32:26;;;;;;;10.70;9.63;;;25.40;99.90;;;;;;5049881;28;20204;-76
2023/06/21 09:34:51;;;;;;;11.50;10.50;;;25.30;99.90;;;;;;5047504;28;20728;-74
2023/06/21 09:37:38;;;;;;;11.27;10.38;;;25.20;99.90;;;;;;5048860;28;20233;-74
2023/06/21 09:40:04;;;;;;;11.23;10.27;;;25.30;99.90;;;;;;5046122;28;20277;-72
2023/06/21 09:42:29;;;;;;;12.65;11.45;;;25.40;99.90;;;;;;5057621;28;20197;-72
2023/06/21 09:44:55;;;;;;;11.52;10.40;;;25.50;99.90;;;;;;5048852;28;20631;-73
2023/06/21 09:47:22;;;;;;;10.60;9.80;;;25.60;99.90;;;;;;5047236;28;20202;-71
2023/06/21 09:49:49;;;;;;;10.55;9.65;;;25.50;99.90;;;;;;5048956;28;20206;-73
2023/06/21 09:52:17;;;;;;;11.35;10.45;;;25.40;99.90;;;;;;5048640;28;20214;-74
2023/06/21 09:54:43;;;;;;;10.73;9.82;;;25.50;99.90;;;;;;5048080;28;20204;-74
2023/06/21 09:57:09;;;;;;;9.95;9.15;;;25.50;99.90;;;;;;5048743;28;20212;-73
2023/06/21 09:59:39;;;;;;;10.82;9.95;;;25.60;99.90;;;;;;5046489;28;20179;-73
2023/06/21 10:02:09;;;;;;;11.50;10.38;;;25.70;99.90;;;;;;5043735;28;20203;-73
2023/06/21 10:04:41;;;;;;;10.43;9.55;;;25.70;99.90;;;;;;5048656;28;20211;-74
2023/06/21 10:07:07;;;;;;;10.13;9.18;;;25.80;99.90;;;;;;5046664;28;20290;-73
2023/06/21 10:09:37;;;;;;;11.10;10.20;;;25.80;99.90;;;;;;5055869;28;20277;-74
2023/06/21 10:12:04;;;;;;;11.38;10.38;;;25.80;99.90;;;;;;5064708;28;20612;-74
2023/06/21 10:14:32;;;;;;;11.40;10.43;;;26.00;99.90;;;;;;5065149;28;20197;-73
2023/06/21 10:16:58;;;;;;;11.63;10.63;;;26.10;99.90;;;;;;5064409;28;20281;-73
2023/06/21 10:19:25;;;;;;;10.18;9.32;;;25.90;99.90;;;;;;5066936;28;20663;-74
2023/06/21 10:22:09;;;;;;;10.40;9.40;;;25.80;99.90;;;;;;5067137;28;20571;-74
2023/06/21 10:24:48;;;;;;;10.05;9.25;;;25.80;99.90;;;;;;5066243;28;20209;-73
2023/06/21 10:27:15;;;;;;;9.00;8.23;;;25.90;99.90;;;;;;5067108;28;20550;-73
2023/06/21 10:29:43;;;;;;;10.13;9.32;;;26.20;99.90;;;;;;5065788;28;20691;-73
2023/06/21 10:32:10;;;;;;;10.55;9.65;;;26.20;99.90;;;;;;5068210;28;20201;-73
2023/06/21 10:35:04;;;;;;;9.38;8.57;;;26.10;99.90;;;;;;5069017;28;20220;-73
2023/06/21 10:37:48;;;;;;;8.70;8.00;;;26.30;99.90;;;;;;5053871;28;20203;-76
2023/06/21 10:40:15;;;;;;;9.90;9.10;;;26.30;99.90;;;;;;5047773;28;20918;-76
2023/06/21 10:42:41;;;;;;;9.25;8.43;;;26.40;99.90;;;;;;5054270;28;20226;-77
2023/06/21 10:45:09;;;;;;;9.20;8.30;;;26.30;99.90;;;;;;5063479;28;20288;-77
2023/06/21 10:47:36;;;;;;;9.63;8.82;;;26.40;99.90;;;;;;5060592;28;20202;-78
2023/06/21 10:50:02;;;;;;;8.55;7.95;;;26.40;99.90;;;;;;5044084;28;20223;-79
2023/06/21 10:52:29;;;;;;;7.50;6.90;;;26.40;99.90;;;;;;5060339;28;20459;-76
2023/06/21 10:55:00;;;;;;;8.32;7.63;;;26.50;99.90;;;;;;5067089;28;20203;-75
2023/06/21 10:57:27;;;;;;;8.27;7.68;;;26.50;99.90;;;;;;5065399;28;20183;-75
2023/06/21 10:59:55;;;;;;;8.60;7.75;;;26.50;99.90;;;;;;5061540;28;20230;-77
2023/06/21 11:02:22;;;;;;;10.43;7.60;;;26.60;99.90;;;;;;5060317;28;20810;-76
2023/06/21 11:05:16;;;;;;;8.57;7.88;;;26.80;99.90;;;;;;5062419;28;20203;-75
2023/06/21 11:08:09;;;;;;;8.15;7.45;;;27.00;99.90;;;;;;5059416;28;20194;-75
2023/06/21 11:10:46;;;;;;;7.70;7.10;;;27.30;99.90;;;;;;5064000;28;20205;-77
2023/06/21 11:13:13;;;;;;;7.70;7.00;;;27.30;99.90;;;;;;5060582;28;20214;-77
2023/06/21 11:15:42;;;;;;;7.13;6.63;;;27.00;99.90;;;;;;5064172;28;20238;-77
2023/06/21 11:18:09;;;;;;;8.38;7.50;;;27.00;99.90;;;;;;5066174;28;20205;-76
2023/06/21 11:20:55;;;;;;;7.47;6.85;;;26.90;99.90;;;;;;5067148;28;20208;-77
2023/06/21 11:23:22;;;;;;;8.23;7.43;;;26.70;99.90;;;;;;5056255;28;20207;-77
2023/06/21 11:26:13;;;;;;;7.53;6.82;;;26.60;99.90;;;;;;5056572;28;20220;-78
2023/06/21 11:28:49;;;;;;;7.53;6.93;;;26.50;99.90;;;;;;5051179;28;20211;-76
2023/06/21 11:31:16;;;;;;;7.95;6.72;;;26.50;99.90;;;;;;5046589;28;20221;-76
2023/06/21 11:33:55;;;;;;;7.47;6.88;;;26.40;99.90;;;;;;5047193;28;20233;-76
2023/06/21 11:36:34;;;;;;;7.85;7.13;;;26.30;99.90;;;;;;5045502;28;20248;-76
2023/06/21 11:39:06;;;;;;;6.80;6.28;;;26.30;99.90;;;;;;5047569;28;20243;-77
2023/06/21 11:41:45;;;;;;;7.30;6.60;;;26.40;99.90;;;;;;5059693;28;20285;-77
2023/06/21 11:44:20;;;;;;;7.57;6.97;;;26.40;99.90;;;;;;5053974;28;20227;-75
2023/06/21 11:46:46;;;;;;;8.20;7.47;;;26.40;99.90;;;;;;5040026;28;20206;-75
2023/06/21 11:49:44;;;;;;;7.72;7.13;;;26.30;99.90;;;;;;5043026;28;20256;-75
2023/06/21 11:52:09;;;;;;;7.82;6.60;;;26.40;99.90;;;;;;5046699;28;20206;-75
2023/06/21 11:54:36;;;;;;;7.22;6.68;;;26.60;99.90;;;;;;5049529;28;20198;-75
2023/06/21 11:57:05;;;;;;;6.85;6.32;;;26.50;99.90;;;;;;5042086;28;20696;-75
2023/06/21 11:59:33;;;;;;;7.63;7.00;;;26.70;99.90;;;;;;5054677;28;20709;-75
2023/06/21 12:02:16;;;;;;;7.88;7.18;;;26.90;99.90;;;;;;5053703;28;20571;-75
2023/06/21 12:04:43;;;;;;;6.88;6.38;;;27.00;99.90;;;;;;5042016;28;20202;-76
2023/06/21 12:07:09;;;;;;;9.23;7.38;;;26.90;99.90;;;;;;5045484;28;20195;-73
2023/06/21 12:09:37;;;;;;;6.60;5.97;;;27.00;99.90;;;;;;5053078;28;20275;-73
2023/06/21 12:12:04;;;;;;;6.70;6.10;;;27.10;99.90;;;;;;5062320;28;20237;-75
2023/06/21 12:14:30;;;;;;;6.75;6.18;;;27.40;99.90;;;;;;5054060;28;20192;-76
2023/06/21 12:16:55;;;;;;;7.03;6.53;;;27.80;99.90;;;;;;5052872;28;20729;-74
2023/06/21 12:19:21;;;;;;;6.93;6.32;;;28.30;99.90;;;;;;5043215;28;20233;-75
2023/06/21 12:21:47;;;;;;;6.50;6.00;;;28.80;99.90;;;;;;5037110;28;20660;-75
2023/06/21 12:24:13;;;;;;;7.93;7.13;;;28.60;99.90;;;;;;5054994;28;20255;-74
2023/06/21 12:26:53;;;;;;;7.53;6.93;;;28.40;99.90;;;;;;5047722;28;20629;-74
2023/06/21 12:29:19;;;;;;;7.03;6.38;;;28.00;99.90;;;;;;5040760;28;20198;-76
2023/06/21 12:31:45;;;;;;;7.15;6.50;;;28.30;99.90;;;;;;5043476;28;20197;-75
2023/06/21 12:34:17;;;;;;;6.80;6.15;;;28.80;99.90;;;;;;5060871;28;20304;-77